createdAt,value
2023-12-07T00:01:15.753Z,27.38
2023-12-07T00:03:44.219Z,23.55
2023-12-07T00:06:12.425Z,31.70
2023-12-07T00:08:40.634Z,34.60
2023-12-07T00:11:08.807Z,31.38
2023-12-07T00:13:37.285Z,26.55
2023-12-07T00:16:06.139Z,24.83
2023-12-07T00:18:35.855Z,30.42
2023-12-07T00:21:04.448Z,29.95
2023-12-07T00:23:32.737Z,30.73
2023-12-07T00:26:01.112Z,24.52
2023-12-07T00:28:29.268Z,27.60
2023-12-07T00:30:57.489Z,32.42
2023-12-07T00:33:25.875Z,30.48
2023-12-07T00:35:55.255Z,34.72
2023-12-07T00:38:23.716Z,34.03
2023-12-07T00:40:51.812Z,31.50
2023-12-07T00:43:19.992Z,29.08
2023-12-07T00:45:48.213Z,35.15
2023-12-07T00:48:17.515Z,36.22
2023-12-07T00:50:45.872Z,38.15
2023-12-07T00:53:16.045Z,36.28
2023-12-07T00:55:44.244Z,32.08
2023-12-07T00:58:12.432Z,35.45
2023-12-07T01:00:42.353Z,38.17
2023-12-07T01:03:10.844Z,37.50
2023-12-07T01:05:39.155Z,37.33
2023-12-07T01:08:07.446Z,38.92
2023-12-07T01:10:37.241Z,37.17
2023-12-07T01:13:05.695Z,38.50
2023-12-07T01:15:33.793Z,38.60
2023-12-07T01:18:02.266Z,38.10
2023-12-07T01:20:30.343Z,36.92
2023-12-07T01:22:58.405Z,37.45
2023-12-07T01:25:26.790Z,37.72
2023-12-07T01:27:56.483Z,37.72
2023-12-07T01:30:24.749Z,37.70
2023-12-07T01:32:52.987Z,38.55
2023-12-07T01:35:21.409Z,36.78
2023-12-07T01:37:49.526Z,36.72
2023-12-07T01:40:18.120Z,39.03
2023-12-07T01:42:52.217Z,33.88
2023-12-07T01:45:21.995Z,35.65
2023-12-07T01:47:51.893Z,36.25
2023-12-07T01:50:24.786Z,37.15
2023-12-07T01:52:57.130Z,37.25
2023-12-07T01:55:25.796Z,35.17
2023-12-07T01:57:54.235Z,34.28
2023-12-07T02:00:23.950Z,35.17
2023-12-07T02:02:53.267Z,34.05
2023-12-07T02:05:21.586Z,33.33
2023-12-07T02:07:50.307Z,28.08
2023-12-07T02:10:20.073Z,32.58
2023-12-07T02:12:48.826Z,33.25
2023-12-07T02:15:17.085Z,29.23
2023-12-07T02:17:52.076Z,26.48
2023-12-07T02:20:25.694Z,29.23
2023-12-07T02:22:55.565Z,27.35
2023-12-07T02:25:26.885Z,26.33
2023-12-07T02:27:56.466Z,28.27
2023-12-07T02:30:24.619Z,26.10
2023-12-07T02:32:53.056Z,31.42
2023-12-07T02:35:21.291Z,27.60
2023-12-07T02:37:51.950Z,28.58
2023-12-07T02:40:23.180Z,31.65
2023-12-07T02:42:51.955Z,31.77
2023-12-07T02:45:21.645Z,33.33
2023-12-07T02:47:49.948Z,34.95
2023-12-07T02:50:18.544Z,32.45
2023-12-07T02:52:46.922Z,28.23
2023-12-07T02:55:15.311Z,26.25
2023-12-07T02:57:44.033Z,24.60
2023-12-07T03:00:15.250Z,30.55
2023-12-07T03:02:44.871Z,27.27
2023-12-07T03:05:12.984Z,29.40
2023-12-07T03:07:41.336Z,31.40
2023-12-07T03:10:10.266Z,28.45
2023-12-07T03:12:38.487Z,28.70
2023-12-07T03:15:07.815Z,28.75
2023-12-07T03:17:35.921Z,31.77
2023-12-07T03:20:06.548Z,25.90
2023-12-07T03:22:35.624Z,23.45
2023-12-07T03:25:04.305Z,21.70
2023-12-07T03:27:32.812Z,26.10
2023-12-07T03:30:00.902Z,29.90
2023-12-07T03:32:29.429Z,28.77
2023-12-07T03:34:57.713Z,26.35
2023-12-07T03:37:28.257Z,25.70
2023-12-07T03:39:56.749Z,29.30
2023-12-07T03:42:49.752Z,27.83
2023-12-07T03:45:13.247Z,28.70
2023-12-07T03:47:41.630Z,25.92
2023-12-07T03:50:10.302Z,22.23
2023-12-07T03:52:39.732Z,25.63
2023-12-07T03:55:09.520Z,22.98
2023-12-07T03:57:37.731Z,22.60
2023-12-07T04:00:08.807Z,24.63
2023-12-07T04:02:36.869Z,20.50
2023-12-07T04:05:05.542Z,18.58
2023-12-07T04:07:33.761Z,21.08
2023-12-07T04:10:06.610Z,21.83
2023-12-07T04:12:34.882Z,21.70
2023-12-07T04:15:03.465Z,23.42
2023-12-07T04:17:31.762Z,22.83
2023-12-07T04:20:00.064Z,21.23
2023-12-07T04:22:28.546Z,20.38
2023-12-07T04:24:56.846Z,19.90
2023-12-07T04:27:26.731Z,17.98
2023-12-07T04:29:55.237Z,21.30
2023-12-07T04:32:23.803Z,19.25
2023-12-07T04:34:52.047Z,18.80
2023-12-07T04:37:20.447Z,16.83
2023-12-07T04:39:49.051Z,17.70
2023-12-07T04:42:17.124Z,23.05
2023-12-07T04:44:46.779Z,17.05
2023-12-07T04:47:15.074Z,21.38
2023-12-07T04:49:43.418Z,18.60
2023-12-07T04:52:11.940Z,20.75
2023-12-07T04:54:40.506Z,15.00
2023-12-07T04:57:08.789Z,17.52
2023-12-07T04:59:38.752Z,16.58
2023-12-07T05:02:09.260Z,19.55
2023-12-07T05:04:37.489Z,20.15
2023-12-07T05:07:06.098Z,16.42
2023-12-07T05:09:34.263Z,19.58
2023-12-07T05:12:02.635Z,19.40
2023-12-07T05:14:30.842Z,17.75
2023-12-07T05:16:59.149Z,17.02
2023-12-07T05:19:29.097Z,18.40
2023-12-07T05:21:57.284Z,15.48
2023-12-07T05:24:25.790Z,15.85
2023-12-07T05:26:53.989Z,15.27
2023-12-07T05:29:22.225Z,15.27
2023-12-07T05:31:51.849Z,17.92
2023-12-07T05:34:20.070Z,17.42
2023-12-07T05:36:49.774Z,16.15
2023-12-07T05:39:19.833Z,14.50
2023-12-07T05:41:48.639Z,19.67
2023-12-07T05:44:22.648Z,18.50
2023-12-07T05:46:51.083Z,19.10
2023-12-07T05:49:19.381Z,16.60
2023-12-07T05:51:48.844Z,18.40
2023-12-07T05:54:16.965Z,16.90
2023-12-07T05:56:45.844Z,17.40
2023-12-07T05:59:14.147Z,20.40
2023-12-07T06:01:42.745Z,18.20
2023-12-07T06:04:11.890Z,15.07
2023-12-07T06:06:40.051Z,19.67
2023-12-07T06:09:09.785Z,13.50
2023-12-07T06:11:37.903Z,14.35
2023-12-07T06:14:07.488Z,16.48
2023-12-07T06:16:36.777Z,14.02
2023-12-07T06:19:05.864Z,16.27
2023-12-07T06:21:34.278Z,12.85
2023-12-07T06:24:02.728Z,13.30
2023-12-07T06:26:32.216Z,19.48
2023-12-07T06:29:00.547Z,18.00
2023-12-07T06:31:28.907Z,23.80
2023-12-07T06:33:57.309Z,20.10
2023-12-07T06:36:27.289Z,21.33
2023-12-07T06:38:56.589Z,20.25
2023-12-07T06:41:25.106Z,15.98
2023-12-07T06:43:56.963Z,14.52
2023-12-07T06:46:25.226Z,18.73
2023-12-07T06:48:54.194Z,19.80
2023-12-07T06:51:22.489Z,18.05
2023-12-07T06:53:51.179Z,17.98
2023-12-07T06:56:19.429Z,17.42
2023-12-07T06:58:47.565Z,22.02
2023-12-07T07:01:17.397Z,20.90
2023-12-07T07:03:45.711Z,20.73
2023-12-07T07:06:13.774Z,22.73
2023-12-07T07:08:41.907Z,19.00
2023-12-07T07:11:15.306Z,23.27
2023-12-07T07:13:44.072Z,18.92
2023-12-07T07:16:12.283Z,21.33
2023-12-07T07:18:42.519Z,21.02
2023-12-07T07:21:10.679Z,20.75
2023-12-07T07:23:39.386Z,21.50
2023-12-07T07:26:07.800Z,21.27
2023-12-07T07:28:36.055Z,25.30
2023-12-07T07:31:05.027Z,20.15
2023-12-07T07:33:33.298Z,14.85
2023-12-07T07:36:03.696Z,18.73
2023-12-07T07:38:31.904Z,17.88
2023-12-07T07:41:00.246Z,18.40
2023-12-07T07:43:29.161Z,17.73
2023-12-07T07:45:57.631Z,13.07
2023-12-07T07:48:27.180Z,17.65
2023-12-07T07:50:55.318Z,14.25
2023-12-07T07:53:24.762Z,20.58
2023-12-07T07:55:53.770Z,16.00
2023-12-07T07:58:22.506Z,18.10
2023-12-07T08:00:51.734Z,15.20
2023-12-07T08:03:20.136Z,19.25
2023-12-07T08:05:48.358Z,15.88
2023-12-07T08:08:16.792Z,17.77
2023-12-07T08:10:54.528Z,18.98
2023-12-07T08:13:25.376Z,17.73
2023-12-07T08:15:56.854Z,15.35
2023-12-07T08:18:27.574Z,18.50
2023-12-07T08:20:56.212Z,19.00
2023-12-07T08:23:24.535Z,16.48
2023-12-07T08:25:54.473Z,18.10
2023-12-07T08:28:23.651Z,27.25
2023-12-07T08:30:51.679Z,29.33
2023-12-07T08:33:20.049Z,20.20
2023-12-07T08:35:50.555Z,18.80
2023-12-07T08:38:18.803Z,16.30
2023-12-07T08:40:47.298Z,20.30
2023-12-07T08:43:16.911Z,23.63
2023-12-07T08:45:45.251Z,35.22
2023-12-07T08:48:13.804Z,25.30
2023-12-07T08:50:42.357Z,25.35
2023-12-07T08:53:10.808Z,19.77
2023-12-07T08:55:39.003Z,13.57
2023-12-07T08:58:07.219Z,15.60
2023-12-07T09:00:37.298Z,11.73
2023-12-07T09:03:05.472Z,16.10
2023-12-07T09:05:34.023Z,11.65
2023-12-07T09:08:02.533Z,12.90
2023-12-07T09:10:30.723Z,15.43
2023-12-07T09:12:59.060Z,14.70
2023-12-07T09:15:27.113Z,12.10
2023-12-07T09:17:56.956Z,12.98
2023-12-07T09:20:25.853Z,15.25
2023-12-07T09:22:56.471Z,14.27
2023-12-07T09:25:24.667Z,17.92
2023-12-07T09:27:52.751Z,14.70
2023-12-07T09:30:21.426Z,16.77
2023-12-07T09:32:49.601Z,16.88
2023-12-07T09:35:21.630Z,16.65
2023-12-07T09:37:51.417Z,15.70
2023-12-07T09:40:22.259Z,15.70
2023-12-07T09:42:51.415Z,13.45
2023-12-07T09:45:21.904Z,10.50
2023-12-07T09:47:51.628Z,11.60
2023-12-07T09:50:23.579Z,11.38
2023-12-07T09:53:00.958Z,11.93
2023-12-07T09:55:38.174Z,20.65
2023-12-07T09:58:08.414Z,10.38
2023-12-07T10:00:38.059Z,11.98
2023-12-07T10:03:09.950Z,10.65
2023-12-07T10:05:58.756Z,10.10
2023-12-07T10:08:30.998Z,10.55
2023-12-07T10:11:09.690Z,10.23
2023-12-07T10:13:38.846Z,11.90
2023-12-07T10:16:11.736Z,8.88
2023-12-07T10:21:13.638Z,8.80
2023-12-07T10:23:44.586Z,8.63
2023-12-07T10:26:12.983Z,8.80
2023-12-07T10:28:41.995Z,8.10
2023-12-07T10:31:11.512Z,7.20
2023-12-07T10:33:39.977Z,8.10
2023-12-07T10:36:09.795Z,8.93
2023-12-07T10:38:42.865Z,9.57
2023-12-07T10:41:13.552Z,10.88
2023-12-07T10:43:45.903Z,10.43
2023-12-07T10:46:17.746Z,10.68
2023-12-07T10:48:48.620Z,11.33
2023-12-07T10:51:20.941Z,11.30
2023-12-07T10:53:51.131Z,15.32
2023-12-07T10:56:27.258Z,12.38
2023-12-07T10:58:57.491Z,10.63
2023-12-07T11:01:26.471Z,10.13
2023-12-07T11:03:55.659Z,10.65
2023-12-07T11:06:24.520Z,8.63
2023-12-07T11:08:56.993Z,9.95
2023-12-07T11:11:30.805Z,7.72
2023-12-07T11:14:01.483Z,8.32
2023-12-07T11:16:33.739Z,9.32
2023-12-07T11:19:02.149Z,8.95
2023-12-07T11:21:30.555Z,8.85
2023-12-07T11:24:02.209Z,8.05
2023-12-07T11:26:30.559Z,7.20
2023-12-07T11:28:58.947Z,6.68
2023-12-07T11:31:28.279Z,7.85
2023-12-07T11:33:57.129Z,7.50
2023-12-07T11:36:25.755Z,8.30
2023-12-07T11:39:29.846Z,7.88
2023-12-07T11:42:09.322Z,7.75
2023-12-07T11:44:39.208Z,6.15
2023-12-07T11:47:07.932Z,6.40
2023-12-07T11:49:37.190Z,5.72
2023-12-07T11:52:16.050Z,6.97
2023-12-07T11:54:48.159Z,5.65
2023-12-07T11:57:17.001Z,6.13
2023-12-07T11:59:46.374Z,5.78
2023-12-07T12:02:15.072Z,5.10
2023-12-07T12:04:44.167Z,4.95
2023-12-07T12:07:13.028Z,4.07
2023-12-07T12:09:42.030Z,4.13
2023-12-07T12:12:12.015Z,3.70
2023-12-07T12:14:40.343Z,3.42
2023-12-07T12:17:08.459Z,4.28
2023-12-07T12:19:38.039Z,3.55
2023-12-07T12:22:08.530Z,4.00
2023-12-07T12:24:38.094Z,3.80
2023-12-07T12:27:06.970Z,4.15
2023-12-07T12:29:36.774Z,3.63
2023-12-07T12:32:06.877Z,3.97
2023-12-07T12:34:36.174Z,4.30
2023-12-07T12:37:06.754Z,4.10
2023-12-07T12:39:36.117Z,3.30
2023-12-07T12:42:06.229Z,3.15
2023-12-07T12:44:38.080Z,3.50
2023-12-07T12:47:09.449Z,3.80
2023-12-07T12:49:39.270Z,3.50
2023-12-07T12:52:12.719Z,3.63
2023-12-07T12:54:41.437Z,3.78
2023-12-07T12:57:09.971Z,3.45
2023-12-07T12:59:39.611Z,3.55
2023-12-07T13:02:09.225Z,3.67
2023-12-07T13:04:41.453Z,2.90
2023-12-07T13:07:11.018Z,3.25
2023-12-07T13:09:39.596Z,3.15
2023-12-07T13:12:08.886Z,3.20
2023-12-07T13:14:39.592Z,3.08
2023-12-07T13:17:10.067Z,3.28
2023-12-07T13:19:38.657Z,3.35
2023-12-07T13:22:07.654Z,3.00
2023-12-07T13:24:36.271Z,3.05
2023-12-07T13:27:04.803Z,3.45
2023-12-07T13:29:36.380Z,2.92
2023-12-07T13:32:06.208Z,7.43
2023-12-07T13:34:36.326Z,3.10
2023-12-07T13:37:04.930Z,2.83
2023-12-07T13:39:33.452Z,2.88
2023-12-07T13:42:04.233Z,3.20
2023-12-07T13:44:34.548Z,2.70
2023-12-07T13:47:03.577Z,2.55
2023-12-07T13:49:33.890Z,2.75
2023-12-07T13:52:07.634Z,3.08
2023-12-07T13:57:09.914Z,4.90
2023-12-07T13:59:40.679Z,7.75
2023-12-07T14:02:09.029Z,7.43
2023-12-07T14:04:37.294Z,7.57
2023-12-07T14:07:25.235Z,7.07
2023-12-07T14:09:58.569Z,8.70
2023-12-07T14:12:29.811Z,7.90
2023-12-07T14:14:59.186Z,7.43
2023-12-07T14:17:32.854Z,7.50
2023-12-07T14:20:16.397Z,7.15
2023-12-07T14:22:57.876Z,6.63
2023-12-07T14:25:26.454Z,6.93
2023-12-07T14:27:54.669Z,6.40
2023-12-07T14:30:23.474Z,6.53
2023-12-07T14:32:54.288Z,8.45
2023-12-07T14:35:23.670Z,7.40
2023-12-07T14:37:52.032Z,6.55
2023-12-07T14:40:21.786Z,7.05
2023-12-07T14:42:49.994Z,6.05
2023-12-07T14:45:21.969Z,6.90
2023-12-07T14:47:50.613Z,6.03
2023-12-07T14:50:19.171Z,7.35
2023-12-07T14:52:47.940Z,5.53
2023-12-07T14:55:16.208Z,7.00
2023-12-07T14:57:45.692Z,5.43
2023-12-07T15:00:15.026Z,5.53
2023-12-07T15:02:43.603Z,6.07
2023-12-07T15:05:12.059Z,8.40
2023-12-07T15:07:40.622Z,9.45
2023-12-07T15:10:10.002Z,10.88
2023-12-07T15:12:38.497Z,11.95
2023-12-07T15:15:10.594Z,6.32
2023-12-07T15:17:39.235Z,7.75
2023-12-07T15:20:09.904Z,6.90
2023-12-07T15:22:38.367Z,8.57
2023-12-07T15:25:07.132Z,8.27
2023-12-07T15:27:35.239Z,8.20
2023-12-07T15:30:08.211Z,9.30
2023-12-07T15:32:38.308Z,11.13
2023-12-07T15:35:07.738Z,9.18
2023-12-07T15:37:36.037Z,8.45
2023-12-07T15:40:05.373Z,10.57
2023-12-07T15:42:33.544Z,11.73
2023-12-07T15:45:02.646Z,11.57
2023-12-07T15:47:35.479Z,10.63
2023-12-07T15:50:06.423Z,8.93
2023-12-07T15:52:35.459Z,9.57
2023-12-07T15:55:04.034Z,9.38
2023-12-07T15:57:33.515Z,11.15
2023-12-07T16:00:02.640Z,12.52
2023-12-07T16:02:34.698Z,11.43
2023-12-07T16:05:07.718Z,9.02
2023-12-07T16:07:40.473Z,11.95
2023-12-07T16:12:40.283Z,10.60
2023-12-07T16:15:10.538Z,11.27
2023-12-07T16:17:39.845Z,11.55
2023-12-07T16:20:12.502Z,10.80
2023-12-07T16:25:10.612Z,10.70
2023-12-07T16:27:41.229Z,12.00
2023-12-07T16:30:14.007Z,11.00
2023-12-07T16:35:14.636Z,9.68
2023-12-07T16:37:44.152Z,9.82
2023-12-07T16:40:13.233Z,12.13
2023-12-07T16:42:43.025Z,12.63
2023-12-07T16:45:13.749Z,11.50
2023-12-07T16:47:42.194Z,13.20
2023-12-07T16:50:13.375Z,12.25
2023-12-07T16:52:51.924Z,12.05
2023-12-07T16:55:23.991Z,11.20
2023-12-07T16:57:52.262Z,11.00
2023-12-07T17:00:20.737Z,10.90
2023-12-07T17:02:49.064Z,10.93
2023-12-07T17:05:18.630Z,10.05
2023-12-07T17:07:46.792Z,10.88
2023-12-07T17:10:14.954Z,11.10
2023-12-07T17:12:43.084Z,9.52
2023-12-07T17:15:13.516Z,10.57
2023-12-07T17:17:42.078Z,9.43
2023-12-07T17:20:10.767Z,11.05
2023-12-07T17:22:40.718Z,10.23
2023-12-07T17:25:09.703Z,11.45
2023-12-07T17:27:38.282Z,10.85
2023-12-07T17:30:07.781Z,10.52
2023-12-07T17:32:36.041Z,10.63
2023-12-07T17:35:04.277Z,10.25
2023-12-07T17:37:32.463Z,10.98
2023-12-07T17:40:02.033Z,11.32
2023-12-07T17:42:30.797Z,10.25
2023-12-07T17:44:59.165Z,11.77
2023-12-07T17:47:28.239Z,11.13
2023-12-07T17:49:56.671Z,11.68
2023-12-07T17:52:24.950Z,9.68
2023-12-07T17:54:53.436Z,11.50
2023-12-07T17:57:23.461Z,9.98
2023-12-07T17:59:52.190Z,10.32
2023-12-07T18:02:20.715Z,11.10
2023-12-07T18:04:49.325Z,9.77
2023-12-07T18:07:18.107Z,11.25
2023-12-07T18:09:46.527Z,11.68
2023-12-07T18:12:15.173Z,10.35
2023-12-07T18:14:44.809Z,8.82
2023-12-07T18:17:13.062Z,12.48
2023-12-07T18:19:41.191Z,11.02
2023-12-07T18:22:09.368Z,9.93
2023-12-07T18:24:37.650Z,11.65
2023-12-07T18:27:06.250Z,11.20
2023-12-07T18:29:35.366Z,13.65
2023-12-07T18:32:07.277Z,12.18
2023-12-07T18:34:35.708Z,9.45
2023-12-07T18:37:05.138Z,11.18
2023-12-07T18:39:33.879Z,12.32
2023-12-07T18:42:02.213Z,11.20
2023-12-07T18:44:30.389Z,10.35
2023-12-07T18:46:58.624Z,10.63
2023-12-07T18:49:28.410Z,10.38
2023-12-07T18:51:56.970Z,13.52
2023-12-07T18:54:25.220Z,9.20
2023-12-07T18:56:53.890Z,11.50
2023-12-07T18:59:22.904Z,10.07
2023-12-07T19:01:51.001Z,10.70
2023-12-07T19:04:19.138Z,11.48
2023-12-07T19:06:48.708Z,9.88
2023-12-07T19:09:21.703Z,10.68
2023-12-07T19:11:50.147Z,9.13
2023-12-07T19:14:18.619Z,13.65
2023-12-07T19:16:46.718Z,13.23
2023-12-07T19:19:15.575Z,13.18
2023-12-07T19:21:44.562Z,11.27
2023-12-07T19:24:14.128Z,15.30
2023-12-07T19:26:43.273Z,11.10
2023-12-07T19:29:12.330Z,13.23
2023-12-07T19:31:40.085Z,14.23
2023-12-07T19:34:09.564Z,11.48
2023-12-07T19:36:43.849Z,20.52
2023-12-07T19:39:14.356Z,15.90
2023-12-07T19:41:43.064Z,9.20
2023-12-07T19:44:11.957Z,8.82
2023-12-07T19:46:40.345Z,8.57
2023-12-07T19:49:09.224Z,8.75
2023-12-07T19:51:37.685Z,8.90
2023-12-07T19:54:06.025Z,8.32
2023-12-07T19:56:36.089Z,6.65
2023-12-07T19:59:04.563Z,7.93
2023-12-07T20:01:32.634Z,8.27
2023-12-07T20:04:01.165Z,7.75
2023-12-07T20:06:34.344Z,8.23
2023-12-07T20:09:09.631Z,9.27
2023-12-07T20:11:39.598Z,7.68
2023-12-07T20:14:07.799Z,7.80
2023-12-07T20:16:35.926Z,7.82
2023-12-07T20:19:04.709Z,7.55
2023-12-07T20:21:34.340Z,8.57
2023-12-07T20:24:02.596Z,8.90
2023-12-07T20:26:30.800Z,8.68
2023-12-07T20:29:01.747Z,8.70
2023-12-07T20:31:30.121Z,9.43
2023-12-07T20:33:58.702Z,11.25
2023-12-07T20:36:26.952Z,8.82
2023-12-07T20:38:55.252Z,9.55
2023-12-07T20:41:23.641Z,11.00
2023-12-07T20:43:51.757Z,10.10
2023-12-07T20:46:21.552Z,13.50
2023-12-07T20:48:49.880Z,18.90
2023-12-07T20:51:18.244Z,13.48
2023-12-07T20:53:46.555Z,11.23
2023-12-07T20:56:18.806Z,15.07
2023-12-07T20:58:47.407Z,10.13
2023-12-07T21:01:16.394Z,11.50
2023-12-07T21:03:46.279Z,10.32
2023-12-07T21:06:25.876Z,8.63
2023-12-07T21:08:55.877Z,8.93
2023-12-07T21:11:24.309Z,7.82
2023-12-07T21:13:52.461Z,8.63
2023-12-07T21:16:20.647Z,9.27
2023-12-07T21:18:50.308Z,9.52
2023-12-07T21:21:18.688Z,9.98
2023-12-07T21:23:46.859Z,9.25
2023-12-07T21:26:15.008Z,9.25
2023-12-07T21:28:43.227Z,9.88
2023-12-07T21:31:11.690Z,10.85
2023-12-07T21:33:40.716Z,9.65
2023-12-07T21:36:12.382Z,11.13
2023-12-07T21:38:42.471Z,10.98
2023-12-07T21:41:11.293Z,11.68
2023-12-07T21:43:39.429Z,10.27
2023-12-07T21:46:07.895Z,12.18
2023-12-07T21:48:36.375Z,12.43
2023-12-07T21:51:06.844Z,14.23
2023-12-07T21:53:36.530Z,10.88
2023-12-07T21:56:06.155Z,11.05
2023-12-07T21:58:34.451Z,11.52
2023-12-07T22:01:03.154Z,9.63
2023-12-07T22:03:31.243Z,11.95
2023-12-07T22:05:59.433Z,9.93
2023-12-07T22:08:27.927Z,9.77
2023-12-07T22:10:58.133Z,12.00
2023-12-07T22:13:26.608Z,11.27
2023-12-07T22:15:55.451Z,11.15
2023-12-07T22:18:24.364Z,11.90
2023-12-07T22:20:52.914Z,11.25
2023-12-07T22:23:22.976Z,12.18
2023-12-07T22:25:51.199Z,13.13
2023-12-07T22:28:21.268Z,15.10
2023-12-07T22:30:49.714Z,15.63
2023-12-07T22:33:18.264Z,13.30
2023-12-07T22:35:46.931Z,11.95
2023-12-07T22:38:15.143Z,12.13
2023-12-07T22:40:43.972Z,12.60
2023-12-07T22:43:12.111Z,13.70
2023-12-07T22:45:41.910Z,12.70
2023-12-07T22:48:10.106Z,12.93
2023-12-07T22:50:38.767Z,11.63
2023-12-07T22:53:07.117Z,10.98
2023-12-07T22:55:35.424Z,12.15
2023-12-07T22:58:03.655Z,12.38
2023-12-07T23:00:32.263Z,12.50
2023-12-07T23:03:02.066Z,12.68
2023-12-07T23:05:30.503Z,11.57
2023-12-07T23:07:58.653Z,13.82
2023-12-07T23:10:27.231Z,12.07
2023-12-07T23:12:55.545Z,11.75
2023-12-07T23:15:23.794Z,13.60
2023-12-07T23:17:52.262Z,11.57
2023-12-07T23:20:22.267Z,15.00
2023-12-07T23:22:50.544Z,14.70
2023-12-07T23:25:20.027Z,12.93
2023-12-07T23:27:48.961Z,13.05
2023-12-07T23:30:17.214Z,14.10
2023-12-07T23:32:46.170Z,13.98
2023-12-07T23:35:14.491Z,14.48
2023-12-07T23:37:44.264Z,12.60
2023-12-07T23:40:13.461Z,13.68
2023-12-07T23:42:41.866Z,13.55
2023-12-07T23:45:11.436Z,10.48
2023-12-07T23:47:40.613Z,11.10
2023-12-07T23:50:10.113Z,10.70
2023-12-07T23:52:38.692Z,13.00
2023-12-07T23:55:10.742Z,11.65
2023-12-07T23:57:39.235Z,11.50
